Wilkinson, Minnesota
Current Conditions -  °F | °C
As of 2:35 PM on Tuesday 25 Nov 2014 (Local Time) from KY49 Reporting Station
Overcast Overcast  
Wind Chill: 21°   Ceiling: 1800
Heat Index: 21°   Visibility: 10mi
Dew Point: 10°   Wind: 3mph
Humidity: 64%   Direction: 200°SSW
Pressure: 29.92"   Gusts: NA
Location:  47.3012°N, 94.5426°W
Report Text: KY49 252035Z AUTO 20003KT 10SM OVC018 M06/M12 A2992 RMK AO2 T10611120
Loading
Personal Weather Stations






























Interactive Weather Map New forecast layout! Learn more

10-Day Weather Forecast

Advertisements
Track Severe Weather on mobile